sensor_id;sensor_type;location;lat;lon;timestamp;P1;durP1;ratioP1;P2;durP2;ratioP2
40170;SDS011;37650;52.790;18.268;2022-09-03T00:00:04;5.30;;;3.80;;
40170;SDS011;37650;52.790;18.268;2022-09-03T00:04:23;4.80;;;3.20;;
40170;SDS011;37650;52.790;18.268;2022-09-03T00:12:55;6.30;;;3.40;;
40170;SDS011;37650;52.790;18.268;2022-09-03T00:17:20;5.40;;;3.60;;
40170;SDS011;37650;52.790;18.268;2022-09-03T00:21:51;5.40;;;3.30;;
40170;SDS011;37650;52.790;18.268;2022-09-03T00:30:14;4.40;;;2.70;;
40170;SDS011;37650;52.790;18.268;2022-09-03T00:34:34;5.00;;;3.00;;
40170;SDS011;37650;52.790;18.268;2022-09-03T00:38:18;4.70;;;2.80;;
40170;SDS011;37650;52.790;18.268;2022-09-03T00:42:42;4.30;;;2.80;;
40170;SDS011;37650;52.790;18.268;2022-09-03T00:51:39;4.80;;;3.10;;
40170;SDS011;37650;52.790;18.268;2022-09-03T01:00:24;4.20;;;2.70;;
40170;SDS011;37650;52.790;18.268;2022-09-03T01:04:50;4.70;;;3.00;;
40170;SDS011;37650;52.790;18.268;2022-09-03T01:13:17;5.00;;;3.10;;
40170;SDS011;37650;52.790;18.268;2022-09-03T01:26:34;5.00;;;2.60;;
40170;SDS011;37650;52.790;18.268;2022-09-03T01:30:54;3.40;;;2.50;;
40170;SDS011;37650;52.790;18.268;2022-09-03T01:35:21;4.40;;;2.90;;
40170;SDS011;37650;52.790;18.268;2022-09-03T01:39:48;3.10;;;2.20;;
40170;SDS011;37650;52.790;18.268;2022-09-03T01:43:49;3.20;;;2.00;;
40170;SDS011;37650;52.790;18.268;2022-09-03T01:56:27;4.80;;;2.20;;
40170;SDS011;37650;52.790;18.268;2022-09-03T02:00:42;3.40;;;2.10;;
40170;SDS011;37650;52.790;18.268;2022-09-03T02:05:12;5.60;;;2.60;;
40170;SDS011;37650;52.790;18.268;2022-09-03T02:09:18;3.90;;;2.60;;
40170;SDS011;37650;52.790;18.268;2022-09-03T02:13:40;3.30;;;2.10;;
40170;SDS011;37650;52.790;18.268;2022-09-03T02:17:45;4.90;;;2.80;;
40170;SDS011;37650;52.790;18.268;2022-09-03T02:21:38;6.10;;;2.30;;
40170;SDS011;37650;52.790;18.268;2022-09-03T02:25:47;4.00;;;2.10;;
40170;SDS011;37650;52.790;18.268;2022-09-03T02:30:07;6.00;;;2.50;;
40170;SDS011;37650;52.790;18.268;2022-09-03T02:34:30;3.60;;;2.20;;
40170;SDS011;37650;52.790;18.268;2022-09-03T02:38:50;4.60;;;2.20;;
40170;SDS011;37650;52.790;18.268;2022-09-03T02:43:05;3.20;;;2.10;;
40170;SDS011;37650;52.790;18.268;2022-09-03T02:47:35;3.20;;;2.00;;
40170;SDS011;37650;52.790;18.268;2022-09-03T02:55:38;5.30;;;2.60;;
40170;SDS011;37650;52.790;18.268;2022-09-03T02:59:49;3.20;;;2.00;;
40170;SDS011;37650;52.790;18.268;2022-09-03T03:04:18;4.20;;;2.20;;
40170;SDS011;37650;52.790;18.268;2022-09-03T03:08:31;4.00;;;2.50;;
40170;SDS011;37650;52.790;18.268;2022-09-03T03:12:46;3.90;;;2.10;;
40170;SDS011;37650;52.790;18.268;2022-09-03T03:17:02;2.70;;;1.90;;
40170;SDS011;37650;52.790;18.268;2022-09-03T03:21:15;3.10;;;2.30;;
40170;SDS011;37650;52.790;18.268;2022-09-03T03:25:22;3.80;;;2.20;;
40170;SDS011;37650;52.790;18.268;2022-09-03T03:29:45;3.50;;;2.20;;
40170;SDS011;37650;52.790;18.268;2022-09-03T03:34:01;3.30;;;1.90;;
40170;SDS011;37650;52.790;18.268;2022-09-03T03:37:47;3.80;;;2.40;;
40170;SDS011;37650;52.790;18.268;2022-09-03T03:41:54;4.40;;;1.90;;
40170;SDS011;37650;52.790;18.268;2022-09-03T03:50:20;3.50;;;2.00;;
40170;SDS011;37650;52.790;18.268;2022-09-03T03:54:35;3.30;;;1.90;;
40170;SDS011;37650;52.790;18.268;2022-09-03T03:58:49;5.50;;;1.80;;
40170;SDS011;37650;52.790;18.268;2022-09-03T04:02:43;4.10;;;2.20;;
40170;SDS011;37650;52.790;18.268;2022-09-03T04:07:03;3.20;;;2.10;;
40170;SDS011;37650;52.790;18.268;2022-09-03T04:11:04;3.20;;;1.90;;
40170;SDS011;37650;52.790;18.268;2022-09-03T04:15:17;3.80;;;2.00;;
40170;SDS011;37650;52.790;18.268;2022-09-03T04:19:28;3.80;;;2.00;;
40170;SDS011;37650;52.790;18.268;2022-09-03T04:23:54;3.80;;;2.00;;
40170;SDS011;37650;52.790;18.268;2022-09-03T04:28:16;3.80;;;1.70;;
40170;SDS011;37650;52.790;18.268;2022-09-03T04:32:37;3.80;;;2.40;;
40170;SDS011;37650;52.790;18.268;2022-09-03T04:37:00;3.80;;;2.10;;
40170;SDS011;37650;52.790;18.268;2022-09-03T04:41:22;3.50;;;1.90;;
40170;SDS011;37650;52.790;18.268;2022-09-03T04:44:45;2.90;;;1.60;;
40170;SDS011;37650;52.790;18.268;2022-09-03T04:48:46;4.70;;;2.00;;
40170;SDS011;37650;52.790;18.268;2022-09-03T04:53:03;4.00;;;2.10;;
40170;SDS011;37650;52.790;18.268;2022-09-03T04:57:15;3.30;;;1.80;;
40170;SDS011;37650;52.790;18.268;2022-09-03T05:01:37;3.00;;;1.70;;
40170;SDS011;37650;52.790;18.268;2022-09-03T05:05:31;3.70;;;1.70;;
40170;SDS011;37650;52.790;18.268;2022-09-03T05:09:59;4.00;;;2.00;;
40170;SDS011;37650;52.790;18.268;2022-09-03T05:13:53;2.60;;;1.70;;
40170;SDS011;37650;52.790;18.268;2022-09-03T05:17:18;2.30;;;1.80;;
40170;SDS011;37650;52.790;18.268;2022-09-03T05:21:35;3.70;;;2.00;;
40170;SDS011;37650;52.790;18.268;2022-09-03T05:25:25;2.00;;;1.60;;
40170;SDS011;37650;52.790;18.268;2022-09-03T05:29:34;2.70;;;1.70;;
40170;SDS011;37650;52.790;18.268;2022-09-03T05:33:51;3.50;;;1.90;;
40170;SDS011;37650;52.790;18.268;2022-09-03T05:38:13;3.30;;;1.90;;
40170;SDS011;37650;52.790;18.268;2022-09-03T05:42:31;3.20;;;1.80;;
40170;SDS011;37650;52.790;18.268;2022-09-03T05:46:50;3.90;;;2.00;;
40170;SDS011;37650;52.790;18.268;2022-09-03T05:51:08;2.40;;;1.60;;
40170;SDS011;37650;52.790;18.268;2022-09-03T05:55:30;5.70;;;2.30;;
40170;SDS011;37650;52.790;18.268;2022-09-03T06:04:00;3.10;;;1.60;;
40170;SDS011;37650;52.790;18.268;2022-09-03T06:08:16;4.50;;;2.50;;
40170;SDS011;37650;52.790;18.268;2022-09-03T06:12:17;3.20;;;2.20;;
40170;SDS011;37650;52.790;18.268;2022-09-03T06:16:31;3.50;;;2.60;;
40170;SDS011;37650;52.790;18.268;2022-09-03T06:20:52;2.80;;;2.40;;
40170;SDS011;37650;52.790;18.268;2022-09-03T06:24:45;3.90;;;2.40;;
40170;SDS011;37650;52.790;18.268;2022-09-03T06:28:49;2.50;;;2.10;;
40170;SDS011;37650;52.790;18.268;2022-09-03T06:33:19;3.20;;;2.30;;
40170;SDS011;37650;52.790;18.268;2022-09-03T06:37:15;2.90;;;1.90;;
40170;SDS011;37650;52.790;18.268;2022-09-03T06:44:28;3.30;;;2.30;;
40170;SDS011;37650;52.790;18.268;2022-09-03T06:49:04;3.70;;;2.10;;
40170;SDS011;37650;52.790;18.268;2022-09-03T06:53:28;3.60;;;1.70;;
40170;SDS011;37650;52.790;18.268;2022-09-03T06:57:55;3.20;;;2.10;;
40170;SDS011;37650;52.790;18.268;2022-09-03T07:06:15;6.30;;;2.10;;
40170;SDS011;37650;52.790;18.268;2022-09-03T07:10:41;2.50;;;2.00;;
40170;SDS011;37650;52.790;18.268;2022-09-03T07:14:42;3.30;;;2.30;;
40170;SDS011;37650;52.790;18.268;2022-09-03T07:19:02;2.40;;;2.00;;
40170;SDS011;37650;52.790;18.268;2022-09-03T07:22:58;2.90;;;2.00;;
40170;SDS011;37650;52.790;18.268;2022-09-03T07:27:19;3.30;;;2.10;;
40170;SDS011;37650;52.790;18.268;2022-09-03T07:31:29;2.70;;;1.80;;
40170;SDS011;37650;52.790;18.268;2022-09-03T07:35:50;3.20;;;2.10;;
40170;SDS011;37650;52.790;18.268;2022-09-03T07:40:17;3.40;;;2.10;;
40170;SDS011;37650;52.790;18.268;2022-09-03T08:01:57;3.30;;;1.90;;
40170;SDS011;37650;52.790;18.268;2022-09-03T08:05:59;2.50;;;2.00;;
40170;SDS011;37650;52.790;18.268;2022-09-03T08:14:26;2.90;;;1.60;;
40170;SDS011;37650;52.790;18.268;2022-09-03T08:18:25;3.80;;;2.20;;
40170;SDS011;37650;52.790;18.268;2022-09-03T08:22:14;3.30;;;2.00;;
40170;SDS011;37650;52.790;18.268;2022-09-03T08:25:35;2.20;;;1.80;;
40170;SDS011;37650;52.790;18.268;2022-09-03T08:28:56;2.50;;;2.10;;
40170;SDS011;37650;52.790;18.268;2022-09-03T08:32:17;3.00;;;2.10;;
40170;SDS011;37650;52.790;18.268;2022-09-03T08:35:37;3.70;;;2.20;;
40170;SDS011;37650;52.790;18.268;2022-09-03T08:38:59;2.60;;;2.10;;
40170;SDS011;37650;52.790;18.268;2022-09-03T08:45:47;7.60;;;2.10;;
40170;SDS011;37650;52.790;18.268;2022-09-03T08:49:08;3.30;;;1.90;;
40170;SDS011;37650;52.790;18.268;2022-09-03T08:52:35;3.30;;;1.80;;
40170;SDS011;37650;52.790;18.268;2022-09-03T08:55:58;2.40;;;1.50;;
40170;SDS011;37650;52.790;18.268;2022-09-03T08:59:29;2.50;;;1.70;;
40170;SDS011;37650;52.790;18.268;2022-09-03T09:06:34;3.70;;;1.90;;
40170;SDS011;37650;52.790;18.268;2022-09-03T09:13:52;3.00;;;1.80;;
40170;SDS011;37650;52.790;18.268;2022-09-03T09:24:05;3.40;;;1.90;;
40170;SDS011;37650;52.790;18.268;2022-09-03T09:27:31;9.40;;;2.00;;
40170;SDS011;37650;52.790;18.268;2022-09-03T09:30:54;6.50;;;2.10;;
40170;SDS011;37650;52.790;18.268;2022-09-03T09:34:16;2.10;;;1.60;;
40170;SDS011;37650;52.790;18.268;2022-09-03T09:37:50;3.00;;;1.70;;
40170;SDS011;37650;52.790;18.268;2022-09-03T09:41:21;2.90;;;1.40;;
40170;SDS011;37650;52.790;18.268;2022-09-03T09:44:49;2.70;;;1.60;;
40170;SDS011;37650;52.790;18.268;2022-09-03T09:51:59;5.00;;;1.80;;
40170;SDS011;37650;52.790;18.268;2022-09-03T09:55:59;7.40;;;1.60;;
40170;SDS011;37650;52.790;18.268;2022-09-03T09:59:25;3.60;;;1.40;;
40170;SDS011;37650;52.790;18.268;2022-09-03T10:02:53;4.30;;;1.60;;
40170;SDS011;37650;52.790;18.268;2022-09-03T10:06:17;2.00;;;1.50;;
40170;SDS011;37650;52.790;18.268;2022-09-03T10:10:32;3.20;;;1.50;;
40170;SDS011;37650;52.790;18.268;2022-09-03T10:27:28;1.70;;;1.20;;
40170;SDS011;37650;52.790;18.268;2022-09-03T10:32:17;1.60;;;1.40;;
40170;SDS011;37650;52.790;18.268;2022-09-03T10:40:50;3.20;;;1.60;;
40170;SDS011;37650;52.790;18.268;2022-09-03T10:58:47;2.70;;;1.50;;
40170;SDS011;37650;52.790;18.268;2022-09-03T12:03:52;3.00;;;1.50;;
40170;SDS011;37650;52.790;18.268;2022-09-03T12:16:27;6.00;;;2.40;;
40170;SDS011;37650;52.790;18.268;2022-09-03T12:20:34;4.90;;;2.00;;
40170;SDS011;37650;52.790;18.268;2022-09-03T12:24:20;2.30;;;1.10;;
40170;SDS011;37650;52.790;18.268;2022-09-03T12:28:10;2.40;;;1.50;;
40170;SDS011;37650;52.790;18.268;2022-09-03T12:32:32;2.70;;;1.50;;
40170;SDS011;37650;52.790;18.268;2022-09-03T12:36:16;3.00;;;1.50;;
40170;SDS011;37650;52.790;18.268;2022-09-03T12:52:56;2.40;;;1.40;;
40170;SDS011;37650;52.790;18.268;2022-09-03T12:56:28;3.90;;;1.50;;
40170;SDS011;37650;52.790;18.268;2022-09-03T13:00:08;2.20;;;1.40;;
40170;SDS011;37650;52.790;18.268;2022-09-03T13:11:09;3.90;;;1.80;;
40170;SDS011;37650;52.790;18.268;2022-09-03T13:15:04;2.30;;;1.60;;
40170;SDS011;37650;52.790;18.268;2022-09-03T13:18:54;3.70;;;1.50;;
40170;SDS011;37650;52.790;18.268;2022-09-03T13:26:40;2.10;;;1.40;;
40170;SDS011;37650;52.790;18.268;2022-09-03T13:54:13;3.60;;;1.70;;
40170;SDS011;37650;52.790;18.268;2022-09-03T14:14:05;2.30;;;1.70;;
40170;SDS011;37650;52.790;18.268;2022-09-03T14:18:48;2.30;;;1.60;;
40170;SDS011;37650;52.790;18.268;2022-09-03T14:40:29;4.90;;;2.10;;
40170;SDS011;37650;52.790;18.268;2022-09-03T15:33:01;3.40;;;1.60;;
40170;SDS011;37650;52.790;18.268;2022-09-03T15:37:07;4.30;;;1.70;;
40170;SDS011;37650;52.790;18.268;2022-09-03T15:49:25;3.60;;;2.60;;
40170;SDS011;37650;52.790;18.268;2022-09-03T16:02:25;3.50;;;2.10;;
40170;SDS011;37650;52.790;18.268;2022-09-03T16:06:24;3.90;;;1.90;;
40170;SDS011;37650;52.790;18.268;2022-09-03T16:14:14;3.80;;;2.40;;
40170;SDS011;37650;52.790;18.268;2022-09-03T16:18:18;3.40;;;2.20;;
40170;SDS011;37650;52.790;18.268;2022-09-03T17:03:45;4.20;;;2.70;;
40170;SDS011;37650;52.790;18.268;2022-09-03T17:12:27;5.40;;;3.20;;
40170;SDS011;37650;52.790;18.268;2022-09-03T17:24:49;6.00;;;3.70;;
40170;SDS011;37650;52.790;18.268;2022-09-03T17:52:01;5.30;;;2.70;;
40170;SDS011;37650;52.790;18.268;2022-09-03T17:56:10;3.00;;;2.20;;
40170;SDS011;37650;52.790;18.268;2022-09-03T18:03:58;3.70;;;2.90;;
40170;SDS011;37650;52.790;18.268;2022-09-03T18:31:54;3.60;;;2.60;;
40170;SDS011;37650;52.790;18.268;2022-09-03T18:36:38;7.00;;;2.60;;
40170;SDS011;37650;52.790;18.268;2022-09-03T19:51:17;4.40;;;2.70;;
40170;SDS011;37650;52.790;18.268;2022-09-03T20:08:07;3.50;;;2.80;;
40170;SDS011;37650;52.790;18.268;2022-09-03T21:31:51;5.30;;;3.00;;
40170;SDS011;37650;52.790;18.268;2022-09-03T21:36:13;3.10;;;2.40;;
40170;SDS011;37650;52.790;18.268;2022-09-03T21:40:29;4.90;;;3.10;;
40170;SDS011;37650;52.790;18.268;2022-09-03T21:49:01;4.20;;;3.00;;
40170;SDS011;37650;52.790;18.268;2022-09-03T21:53:36;5.20;;;3.60;;
40170;SDS011;37650;52.790;18.268;2022-09-03T22:02:30;5.20;;;3.20;;
40170;SDS011;37650;52.790;18.268;2022-09-03T22:06:37;3.80;;;2.60;;
40170;SDS011;37650;52.790;18.268;2022-09-03T22:10:49;3.60;;;2.40;;
40170;SDS011;37650;52.790;18.268;2022-09-03T22:15:11;6.30;;;3.00;;
40170;SDS011;37650;52.790;18.268;2022-09-03T22:19:33;3.90;;;3.00;;
40170;SDS011;37650;52.790;18.268;2022-09-03T22:28:16;3.60;;;2.70;;
40170;SDS011;37650;52.790;18.268;2022-09-03T22:32:10;4.90;;;2.60;;
40170;SDS011;37650;52.790;18.268;2022-09-03T22:36:15;5.00;;;2.80;;
40170;SDS011;37650;52.790;18.268;2022-09-03T22:53:16;4.50;;;2.50;;
40170;SDS011;37650;52.790;18.268;2022-09-03T22:57:28;5.20;;;3.50;;
40170;SDS011;37650;52.790;18.268;2022-09-03T23:06:21;4.60;;;3.00;;
40170;SDS011;37650;52.790;18.268;2022-09-03T23:15:12;6.70;;;2.70;;
40170;SDS011;37650;52.790;18.268;2022-09-03T23:19:03;4.70;;;2.70;;
40170;SDS011;37650;52.790;18.268;2022-09-03T23:23:27;4.70;;;2.80;;
40170;SDS011;37650;52.790;18.268;2022-09-03T23:27:38;5.70;;;2.90;;
40170;SDS011;37650;52.790;18.268;2022-09-03T23:31:48;4.40;;;2.80;;
40170;SDS011;37650;52.790;18.268;2022-09-03T23:36:21;7.60;;;3.00;;
40170;SDS011;37650;52.790;18.268;2022-09-03T23:40:55;4.20;;;2.60;;
40170;SDS011;37650;52.790;18.268;2022-09-03T23:45:45;4.00;;;2.40;;
40170;SDS011;37650;52.790;18.268;2022-09-03T23:50:07;4.70;;;2.90;;
